Time;durP1;ratioP1;P1;durP2;ratioP2;P2;SDS_P1;SDS_P2;PMS_P1;PMS_P2;Temp;Humidity;BMP_temperature;BMP_pressure;BME280_temperature;BME280_humidity;BME280_pressure;Samples;Min_cycle;Max_cycle;Signal;HPM_P1;HPM_P2
2021/12/19 00:02:41;;;;;;;109.00;31.87;;;3.10;94.90;;;;;;5007963;28;20208;-70
2021/12/19 00:10:40;;;;;;;113.00;31.50;;;3.10;94.90;;;;;;5023560;28;20207;-70
2021/12/19 00:13:09;;;;;;;88.57;30.17;;;3.10;94.80;;;;;;5007131;28;20219;-70
2021/12/19 00:15:36;;;;;;;72.40;30.07;;;3.10;94.80;;;;;;5020698;28;20646;-70
2021/12/19 00:18:03;;;;;;;104.13;31.57;;;3.10;94.80;;;;;;5026111;28;20546;-70
2021/12/19 00:20:31;;;;;;;124.03;32.57;;;3.10;94.80;;;;;;5024545;28;20213;-70
2021/12/19 00:23:18;;;;;;;133.83;31.27;;;3.10;94.80;;;;;;5024021;28;20228;-70
2021/12/19 00:25:45;;;;;;;89.13;31.10;;;3.10;94.70;;;;;;5005336;28;20606;-70
2021/12/19 00:28:13;;;;;;;92.73;31.20;;;3.10;94.70;;;;;;5031308;28;20234;-70
2021/12/19 00:30:40;;;;;;;74.73;31.43;;;3.10;94.70;;;;;;5012920;28;20632;-70
2021/12/19 00:33:08;;;;;;;96.67;31.70;;;3.10;94.70;;;;;;5024063;28;20218;-70
2021/12/19 00:35:35;;;;;;;78.57;31.13;;;3.10;94.70;;;;;;5019454;28;20780;-70
2021/12/19 00:38:03;;;;;;;92.07;32.27;;;3.10;94.60;;;;;;5030067;28;20644;-70
2021/12/19 00:40:32;;;;;;;91.80;31.70;;;3.10;94.60;;;;;;5029865;28;20205;-70
2021/12/19 00:43:06;;;;;;;83.93;29.57;;;3.10;94.60;;;;;;5025818;28;20541;-70
2021/12/19 00:45:35;;;;;;;129.40;31.97;;;3.10;94.60;;;;;;5024831;28;20217;-70
2021/12/19 00:48:05;;;;;;;78.07;32.37;;;3.10;94.50;;;;;;5030170;28;20250;-70
2021/12/19 00:50:33;;;;;;;84.60;30.70;;;3.00;94.50;;;;;;5030159;28;20710;-70
2021/12/19 00:53:00;;;;;;;69.23;29.07;;;3.00;94.50;;;;;;5009574;28;20209;-70
2021/12/19 00:55:28;;;;;;;71.20;29.33;;;3.00;94.50;;;;;;5024766;28;20308;-70
2021/12/19 00:57:56;;;;;;;73.00;30.67;;;3.10;94.60;;;;;;5012068;28;20251;-70
2021/12/19 01:00:27;;;;;;;101.93;29.93;;;3.00;94.50;;;;;;5023237;28;20706;-70
2021/12/19 01:02:58;;;;;;;96.80;29.27;;;3.00;94.60;;;;;;5010805;28;20252;-70
2021/12/19 01:05:28;;;;;;;122.13;27.13;;;3.00;94.50;;;;;;5039840;28;20225;-70
2021/12/19 01:07:56;;;;;;;118.20;29.77;;;3.00;94.40;;;;;;5043965;28;20246;-70
2021/12/19 01:10:24;;;;;;;115.17;31.87;;;3.00;94.40;;;;;;5043655;28;20273;-70
2021/12/19 01:12:51;;;;;;;110.23;30.30;;;2.90;94.40;;;;;;5026097;28;20216;-70
2021/12/19 01:15:19;;;;;;;85.60;29.50;;;2.90;94.40;;;;;;5038185;28;20205;-70
2021/12/19 01:17:47;;;;;;;94.17;31.07;;;2.80;94.40;;;;;;5019450;28;20212;-70
2021/12/19 01:20:21;;;;;;;106.03;31.90;;;2.80;94.50;;;;;;5014624;28;20672;-70
2021/12/19 01:22:49;;;;;;;100.87;31.00;;;2.80;94.60;;;;;;5025271;28;20224;-70
2021/12/19 01:25:16;;;;;;;110.97;32.00;;;2.80;94.60;;;;;;5024398;28;20218;-70
2021/12/19 01:27:44;;;;;;;84.10;30.57;;;2.80;94.70;;;;;;5022017;28;20215;-70
2021/12/19 01:30:12;;;;;;;129.33;29.73;;;2.80;94.70;;;;;;5013899;28;20215;-70
2021/12/19 01:32:41;;;;;;;106.13;29.20;;;2.80;94.60;;;;;;5015953;28;20218;-70
2021/12/19 01:35:10;;;;;;;135.87;36.53;;;2.80;94.40;;;;;;5021172;28;20251;-70
2021/12/19 01:37:37;;;;;;;121.37;29.60;;;2.80;94.40;;;;;;5024908;28;20647;-70
2021/12/19 01:40:07;;;;;;;97.10;29.60;;;2.70;94.50;;;;;;5028792;28;20325;-70
2021/12/19 01:42:38;;;;;;;101.60;26.90;;;2.70;94.50;;;;;;5014893;28;20215;-70
2021/12/19 01:45:08;;;;;;;114.57;28.60;;;2.70;94.50;;;;;;5040897;28;20212;-70
2021/12/19 01:47:36;;;;;;;100.37;30.00;;;2.60;94.40;;;;;;5024469;28;20302;-70
2021/12/19 01:50:09;;;;;;;103.40;29.83;;;2.60;94.50;;;;;;5019611;28;20230;-70
2021/12/19 01:52:36;;;;;;;136.23;33.13;;;2.60;94.60;;;;;;5028354;28;20569;-70
2021/12/19 01:55:04;;;;;;;198.37;31.93;;;2.60;94.60;;;;;;5026151;28;20215;-70
2021/12/19 01:57:31;;;;;;;76.53;29.07;;;2.60;94.70;;;;;;5024886;28;20293;-70
2021/12/19 01:59:58;;;;;;;95.93;28.97;;;2.60;94.80;;;;;;5017318;28;20246;-70
2021/12/19 02:02:25;;;;;;;116.27;30.73;;;2.60;94.80;;;;;;5016899;28;20563;-70
2021/12/19 02:04:53;;;;;;;92.27;31.90;;;2.60;94.80;;;;;;5009622;28;20313;-70
2021/12/19 02:07:20;;;;;;;80.47;27.80;;;2.60;94.80;;;;;;5024520;28;20215;-70
2021/12/19 02:09:47;;;;;;;82.13;27.93;;;2.60;94.80;;;;;;5025582;28;20430;-70
2021/12/19 02:12:15;;;;;;;138.00;30.53;;;2.60;94.80;;;;;;5022978;28;20299;-70
2021/12/19 02:14:43;;;;;;;145.47;31.53;;;2.60;94.70;;;;;;5001763;28;20219;-70
2021/12/19 02:17:10;;;;;;;64.37;26.83;;;2.60;94.70;;;;;;5022915;28;20206;-70
2021/12/19 02:19:40;;;;;;;74.30;28.40;;;2.50;94.60;;;;;;5006625;28;20602;-70
2021/12/19 02:22:07;;;;;;;90.40;27.60;;;2.60;94.70;;;;;;5017442;28;20266;-70
2021/12/19 02:24:35;;;;;;;85.30;29.53;;;2.60;94.80;;;;;;5031763;28;20203;-70
2021/12/19 02:27:02;;;;;;;67.93;29.13;;;2.60;95.10;;;;;;5019987;28;20531;-70
2021/12/19 02:29:29;;;;;;;80.77;31.53;;;2.60;94.80;;;;;;5009588;28;20221;-70
2021/12/19 02:31:57;;;;;;;108.77;28.60;;;2.60;94.80;;;;;;5021057;28;20523;-70
2021/12/19 02:34:27;;;;;;;102.33;30.47;;;2.70;94.80;;;;;;5017872;28;20219;-70
2021/12/19 02:37:02;;;;;;;78.17;28.10;;;2.70;94.70;;;;;;5009520;28;20562;-70
2021/12/19 02:39:51;;;;;;;101.33;29.97;;;2.70;94.70;;;;;;5025977;28;20238;-70
2021/12/19 02:48:12;;;;;;;125.40;29.60;;;2.70;94.60;;;;;;5022796;28;20216;-70
2021/12/19 02:50:48;;;;;;;106.07;26.03;;;2.70;94.60;;;;;;5021669;28;20216;-70
2021/12/19 02:53:25;;;;;;;79.37;28.93;;;2.80;94.60;;;;;;5016435;28;20574;-70
2021/12/19 02:55:52;;;;;;;78.40;28.20;;;2.70;94.50;;;;;;5007871;28;20225;-70
2021/12/19 02:58:20;;;;;;;76.70;27.63;;;2.70;94.50;;;;;;5025451;28;20226;-70
2021/12/19 03:00:48;;;;;;;76.90;30.80;;;2.70;94.50;;;;;;5020319;28;20233;-70
2021/12/19 03:03:16;;;;;;;68.63;28.60;;;2.80;94.60;;;;;;5034327;28;20676;-70
2021/12/19 03:05:43;;;;;;;71.83;28.27;;;2.70;94.60;;;;;;5045077;28;20323;-70
2021/12/19 03:08:11;;;;;;;154.13;30.63;;;2.80;94.60;;;;;;5021278;28;20574;-70
2021/12/19 03:18:31;;;;;;;77.60;28.70;;;2.80;94.40;;;;;;5043536;28;20226;-70
2021/12/19 03:20:59;;;;;;;118.70;32.27;;;2.80;94.40;;;;;;5020579;28;20212;-70
2021/12/19 03:23:27;;;;;;;93.93;31.33;;;2.80;94.30;;;;;;5019380;28;20227;-70
2021/12/19 03:25:54;;;;;;;76.23;32.40;;;2.80;94.30;;;;;;5030112;28;20729;-70
2021/12/19 03:28:21;;;;;;;99.30;33.77;;;2.80;94.30;;;;;;5021492;28;20226;-70
2021/12/19 03:30:49;;;;;;;79.30;31.00;;;2.80;94.30;;;;;;5020808;28;20607;-70
2021/12/19 03:33:16;;;;;;;78.30;31.60;;;2.80;94.30;;;;;;5018636;28;20215;-70
2021/12/19 03:35:44;;;;;;;94.17;35.40;;;2.80;94.30;;;;;;5016658;28;20212;-70
2021/12/19 03:38:13;;;;;;;78.27;32.77;;;2.80;94.20;;;;;;5019962;28;20218;-70
2021/12/19 03:40:45;;;;;;;117.90;34.13;;;2.70;94.20;;;;;;5021795;28;20247;-70
2021/12/19 03:43:15;;;;;;;85.07;32.83;;;2.70;94.20;;;;;;5027329;28;20524;-69
2021/12/19 03:45:45;;;;;;;96.60;35.03;;;2.70;94.20;;;;;;5025766;28;20238;-69
2021/12/19 03:48:15;;;;;;;92.53;31.90;;;2.70;94.30;;;;;;5041940;28;20211;-69
2021/12/19 03:50:45;;;;;;;92.60;31.07;;;2.70;94.30;;;;;;5023821;28;20652;-69
2021/12/19 03:53:14;;;;;;;71.43;28.07;;;2.70;94.30;;;;;;5028912;28;20302;-69
2021/12/19 03:55:42;;;;;;;82.77;31.17;;;2.60;94.20;;;;;;5032277;28;20210;-69
2021/12/19 03:58:10;;;;;;;82.97;30.33;;;2.60;94.10;;;;;;5031244;28;20203;-69
2021/12/19 04:00:38;;;;;;;78.30;30.03;;;2.70;94.10;;;;;;5026392;28;20652;-69
2021/12/19 04:03:09;;;;;;;94.93;32.80;;;2.60;94.10;;;;;;5041593;28;20325;-70
2021/12/19 04:05:42;;;;;;;91.83;31.67;;;2.60;94.10;;;;;;5014905;28;20725;-69
2021/12/19 04:08:09;;;;;;;128.53;35.00;;;2.50;94.10;;;;;;5021022;28;20237;-69
2021/12/19 04:10:37;;;;;;;142.83;35.60;;;2.50;94.10;;;;;;5021786;28;20212;-69
2021/12/19 04:13:04;;;;;;;88.30;32.47;;;2.50;94.20;;;;;;5005927;28;20244;-69
2021/12/19 04:15:32;;;;;;;114.77;34.67;;;2.50;94.20;;;;;;5019604;28;20640;-69
2021/12/19 04:17:59;;;;;;;80.23;33.50;;;2.40;94.30;;;;;;5016558;28;20643;-69
2021/12/19 04:20:26;;;;;;;90.33;34.27;;;2.40;94.40;;;;;;5020462;28;20235;-69
2021/12/19 04:22:54;;;;;;;87.87;31.23;;;2.40;94.50;;;;;;5023406;28;20214;-69
2021/12/19 04:25:21;;;;;;;83.10;31.10;;;2.50;94.50;;;;;;5017159;28;20235;-69
2021/12/19 04:27:49;;;;;;;69.33;31.80;;;2.50;94.50;;;;;;5029083;28;20227;-70
2021/12/19 04:30:21;;;;;;;72.27;28.87;;;2.50;94.50;;;;;;5018996;28;20219;-70
2021/12/19 04:33:25;;;;;;;96.33;30.90;;;2.60;94.50;;;;;;5022171;28;20220;-70
2021/12/19 04:35:45;;;;;;;75.20;29.53;;;2.60;94.40;;;;;;5016578;28;20220;-69
2021/12/19 04:38:57;;;;;;;73.67;28.53;;;2.60;94.30;;;;;;5015564;28;20610;-70
2021/12/19 04:55:18;;;;;;;64.03;25.83;;;2.30;93.90;;;;;;5023189;28;20211;-69
2021/12/19 04:57:53;;;;;;;62.33;23.57;;;2.30;94.00;;;;;;4997411;28;20232;-69
2021/12/19 05:00:32;;;;;;;43.37;23.93;;;2.30;94.00;;;;;;5017287;28;20247;-69
2021/12/19 05:03:07;;;;;;;36.13;21.00;;;2.30;93.90;;;;;;5004783;28;20223;-69
2021/12/19 05:14:16;;;;;;;43.93;22.37;;;2.10;93.80;;;;;;5024421;28;20546;-69
2021/12/19 05:16:45;;;;;;;29.73;19.43;;;2.10;93.90;;;;;;5026655;28;20207;-69
2021/12/19 05:22:06;;;;;;;43.53;20.70;;;2.10;93.90;;;;;;4985428;28;20231;-69
2021/12/19 05:27:07;;;;;;;29.73;20.27;;;2.00;93.70;;;;;;5016725;28;20223;-69
2021/12/19 05:29:36;;;;;;;57.30;21.17;;;2.00;93.70;;;;;;5014370;28;20646;-69
2021/12/19 05:32:04;;;;;;;42.10;20.03;;;2.00;93.80;;;;;;5017288;28;20211;-69
2021/12/19 05:34:32;;;;;;;36.97;20.27;;;2.00;93.90;;;;;;5022240;28;20227;-69
2021/12/19 05:45:20;;;;;;;33.80;21.50;;;2.00;93.90;;;;;;5023389;28;20315;-69
2021/12/19 05:47:49;;;;;;;47.93;20.67;;;2.00;93.90;;;;;;4999752;28;20578;-69
2021/12/19 05:50:19;;;;;;;45.57;19.47;;;2.10;93.80;;;;;;5023610;28;20299;-69
2021/12/19 05:52:47;;;;;;;54.03;21.43;;;2.00;93.80;;;;;;5027278;28;20306;-69
2021/12/19 05:55:16;;;;;;;51.43;20.43;;;2.00;93.70;;;;;;4996386;28;20594;-69
2021/12/19 05:57:44;;;;;;;29.77;20.13;;;2.00;93.70;;;;;;5007381;28;20215;-69
2021/12/19 06:00:18;;;;;;;33.37;20.03;;;2.00;93.60;;;;;;5020876;28;20232;-69
2021/12/19 06:02:46;;;;;;;34.00;19.27;;;1.90;93.60;;;;;;5004794;28;20531;-69
2021/12/19 06:05:13;;;;;;;40.90;20.37;;;1.90;93.60;;;;;;5005013;28;20215;-69
2021/12/19 06:07:41;;;;;;;39.13;21.10;;;1.90;93.60;;;;;;5018958;28;20208;-69
2021/12/19 06:10:09;;;;;;;44.87;20.90;;;1.90;93.60;;;;;;5026401;28;20218;-69
2021/12/19 06:12:39;;;;;;;37.50;21.47;;;1.90;93.60;;;;;;5011923;28;20706;-69
2021/12/19 06:15:10;;;;;;;41.37;22.97;;;1.90;93.60;;;;;;5024045;28;20214;-69
2021/12/19 06:17:44;;;;;;;49.13;24.70;;;1.80;93.70;;;;;;5024685;28;20654;-69
2021/12/19 06:20:12;;;;;;;45.07;25.37;;;1.80;93.70;;;;;;5009438;28;20227;-69
2021/12/19 06:22:40;;;;;;;60.33;26.03;;;1.80;93.70;;;;;;5013826;28;20215;-69
2021/12/19 06:25:09;;;;;;;43.67;24.30;;;1.70;93.70;;;;;;5015676;28;20211;-69
2021/12/19 06:27:36;;;;;;;40.50;24.17;;;1.70;93.80;;;;;;5022295;28;20230;-69
2021/12/19 06:30:06;;;;;;;41.80;23.93;;;1.70;94.20;;;;;;5028465;28;20496;-69
2021/12/19 06:32:33;;;;;;;47.87;22.07;;;1.70;94.00;;;;;;5030614;28;20854;-70
2021/12/19 06:35:07;;;;;;;39.23;24.53;;;1.70;94.00;;;;;;5009402;28;20218;-69
2021/12/19 06:37:38;;;;;;;50.57;24.00;;;1.70;94.00;;;;;;5022188;28;20289;-69
2021/12/19 06:40:10;;;;;;;38.63;23.40;;;1.70;94.00;;;;;;5001587;28;20228;-69
2021/12/19 06:42:37;;;;;;;47.70;25.67;;;1.80;94.00;;;;;;5018029;28;20216;-70
2021/12/19 06:45:05;;;;;;;47.80;25.27;;;1.70;94.00;;;;;;5025198;28;20229;-69
2021/12/19 06:47:32;;;;;;;46.40;26.13;;;1.70;94.00;;;;;;5021553;28;20514;-69
2021/12/19 06:50:01;;;;;;;53.30;24.73;;;1.70;94.00;;;;;;5031182;28;20231;-69
2021/12/19 06:52:28;;;;;;;56.37;27.33;;;1.70;93.70;;;;;;5023256;28;20303;-69
2021/12/19 06:54:56;;;;;;;48.00;25.23;;;1.60;93.70;;;;;;5016652;28;20218;-69
2021/12/19 06:57:23;;;;;;;46.93;27.73;;;1.60;93.80;;;;;;5024442;28;20570;-69
2021/12/19 06:59:50;;;;;;;48.57;27.43;;;1.60;94.00;;;;;;5026971;28;20228;-69
2021/12/19 07:02:17;;;;;;;44.07;24.70;;;1.60;94.00;;;;;;5032753;28;20230;-69
2021/12/19 07:04:45;;;;;;;63.80;26.17;;;1.60;93.90;;;;;;5026713;28;20244;-69
2021/12/19 07:07:13;;;;;;;63.37;27.03;;;1.60;93.90;;;;;;5023193;28;20221;-69
2021/12/19 07:09:40;;;;;;;66.40;28.00;;;1.60;93.90;;;;;;5028327;28;20208;-69
2021/12/19 07:12:08;;;;;;;60.53;29.73;;;1.60;94.10;;;;;;5023103;28;20212;-70
2021/12/19 07:14:36;;;;;;;49.83;27.67;;;1.60;94.20;;;;;;5038672;28;20207;-70
2021/12/19 07:17:03;;;;;;;49.60;28.40;;;1.60;94.30;;;;;;5023028;28;20221;-70
2021/12/19 07:19:30;;;;;;;76.03;32.87;;;1.60;94.30;;;;;;5027474;28;20231;-69
2021/12/19 07:21:58;;;;;;;63.97;31.80;;;1.60;94.30;;;;;;5032512;28;20269;-69
2021/12/19 07:24:25;;;;;;;58.77;32.10;;;1.60;94.70;;;;;;5048771;28;20222;-69
2021/12/19 07:26:53;;;;;;;59.37;30.23;;;1.60;94.50;;;;;;5039499;28;20305;-69
2021/12/19 07:29:20;;;;;;;84.93;31.60;;;1.70;94.60;;;;;;5027076;28;20291;-70
2021/12/19 07:31:47;;;;;;;60.70;31.97;;;1.70;94.60;;;;;;5031004;28;20226;-70
2021/12/19 07:34:14;;;;;;;68.03;30.93;;;1.70;94.60;;;;;;5033089;28;20309;-70
2021/12/19 07:36:49;;;;;;;55.57;31.03;;;1.80;94.70;;;;;;5045728;28;20218;-69
2021/12/19 07:39:39;;;;;;;73.93;32.13;;;1.80;94.70;;;;;;5024779;28;20643;-70
2021/12/19 07:42:08;;;;;;;61.70;30.30;;;1.80;94.70;;;;;;5018927;28;20263;-69
2021/12/19 07:44:37;;;;;;;63.50;31.43;;;1.90;94.60;;;;;;5016396;28;20269;-70
2021/12/19 07:47:08;;;;;;;63.07;30.10;;;1.90;94.60;;;;;;5031807;28;20244;-69
2021/12/19 07:49:35;;;;;;;67.50;29.40;;;1.90;94.60;;;;;;5024319;28;20211;-69
2021/12/19 07:52:03;;;;;;;54.00;29.43;;;2.00;94.70;;;;;;5019294;28;20216;-69
2021/12/19 07:54:30;;;;;;;61.80;30.60;;;2.00;94.60;;;;;;5029452;28;20675;-69
2021/12/19 07:56:58;;;;;;;51.27;29.23;;;2.00;94.50;;;;;;5018817;28;20220;-69
2021/12/19 07:59:25;;;;;;;52.87;28.60;;;2.00;94.50;;;;;;5039683;28;20226;-70
2021/12/19 08:01:53;;;;;;;56.63;29.03;;;2.10;94.50;;;;;;5027261;28;20253;-69
2021/12/19 08:04:20;;;;;;;46.90;26.63;;;2.10;94.50;;;;;;5033935;28;20618;-69
2021/12/19 08:06:47;;;;;;;53.10;27.67;;;2.20;94.40;;;;;;5014035;28;20602;-69
2021/12/19 08:09:23;;;;;;;63.87;26.47;;;2.20;94.40;;;;;;5023284;28;20216;-69
2021/12/19 08:11:51;;;;;;;41.47;25.43;;;2.20;94.20;;;;;;5007663;28;20221;-69
2021/12/19 08:14:18;;;;;;;55.90;27.07;;;2.20;94.20;;;;;;5033465;28;20219;-69
2021/12/19 08:16:46;;;;;;;44.93;26.07;;;2.20;94.20;;;;;;5023854;28;20213;-70
2021/12/19 08:19:14;;;;;;;42.57;25.40;;;2.20;94.10;;;;;;5023177;28;20219;-70
2021/12/19 08:21:41;;;;;;;49.50;24.63;;;2.30;94.10;;;;;;5008091;28;20262;-69
2021/12/19 08:24:10;;;;;;;46.23;26.00;;;2.30;94.10;;;;;;5024755;28;20490;-69
2021/12/19 08:26:39;;;;;;;42.73;26.60;;;2.30;94.00;;;;;;5026707;28;20233;-69
2021/12/19 08:29:11;;;;;;;48.03;27.50;;;2.30;93.90;;;;;;5014583;28;20228;-69
2021/12/19 08:31:40;;;;;;;51.87;28.37;;;2.30;93.80;;;;;;5024320;28;20212;-69
2021/12/19 08:34:08;;;;;;;49.20;27.17;;;2.40;93.80;;;;;;5018972;28;20215;-69
2021/12/19 08:36:36;;;;;;;44.27;26.53;;;2.40;93.80;;;;;;5024628;28;20203;-69
2021/12/19 08:39:04;;;;;;;42.17;26.67;;;2.40;93.70;;;;;;5024603;28;20290;-69
2021/12/19 08:41:34;;;;;;;52.77;30.30;;;2.30;93.70;;;;;;5024582;28;20235;-69
2021/12/19 08:44:01;;;;;;;52.00;27.93;;;2.40;93.70;;;;;;5029391;28;20223;-69
2021/12/19 08:46:32;;;;;;;51.23;26.00;;;2.40;93.70;;;;;;5021306;28;20219;-69
2021/12/19 08:49:00;;;;;;;49.17;27.13;;;2.40;93.80;;;;;;5027299;28;20210;-69
2021/12/19 08:51:27;;;;;;;60.13;28.23;;;2.40;93.70;;;;;;5023722;28;20543;-69
2021/12/19 08:53:54;;;;;;;47.23;27.83;;;2.40;93.70;;;;;;5025986;28;20216;-69
2021/12/19 08:56:22;;;;;;;41.97;24.73;;;2.50;93.70;;;;;;4987984;28;20731;-70
2021/12/19 08:58:49;;;;;;;45.60;26.47;;;2.50;93.80;;;;;;5012731;28;20225;-70
2021/12/19 09:01:17;;;;;;;55.07;27.63;;;2.50;93.70;;;;;;5024533;28;20228;-70
2021/12/19 09:03:44;;;;;;;61.50;30.37;;;2.60;93.70;;;;;;5028726;28;20238;-70
2021/12/19 09:06:12;;;;;;;58.63;29.43;;;2.60;93.70;;;;;;5027416;28;20246;-69
2021/12/19 09:08:39;;;;;;;57.10;31.00;;;2.60;93.70;;;;;;5026081;28;20654;-69
2021/12/19 09:11:07;;;;;;;73.53;30.47;;;2.60;93.60;;;;;;5020373;28;20241;-69
2021/12/19 09:13:34;;;;;;;53.63;26.93;;;2.60;93.30;;;;;;5025594;28;20227;-69
2021/12/19 09:16:01;;;;;;;78.03;30.67;;;2.60;93.10;;;;;;5026869;28;20212;-69
2021/12/19 09:18:29;;;;;;;63.27;30.80;;;2.60;93.10;;;;;;5015422;28;20668;-69
2021/12/19 09:20:57;;;;;;;79.03;33.37;;;2.60;93.40;;;;;;5035690;28;20241;-69
2021/12/19 09:23:24;;;;;;;85.97;29.77;;;2.60;93.70;;;;;;5022942;28;20584;-69
2021/12/19 09:25:51;;;;;;;98.80;31.57;;;2.60;93.70;;;;;;5001204;28;20220;-69
2021/12/19 09:28:19;;;;;;;62.60;29.77;;;2.60;93.50;;;;;;5014370;28;20218;-69
2021/12/19 09:30:46;;;;;;;82.07;34.97;;;2.60;93.60;;;;;;5023643;28;20206;-69
2021/12/19 09:33:13;;;;;;;90.57;37.23;;;2.60;93.60;;;;;;5021008;28;20239;-69
2021/12/19 09:35:40;;;;;;;56.63;32.17;;;2.60;93.80;;;;;;5021312;28;20240;-69
2021/12/19 09:38:07;;;;;;;67.07;34.00;;;2.70;93.80;;;;;;5016727;28;20225;-70
2021/12/19 09:40:36;;;;;;;72.37;33.30;;;2.70;93.80;;;;;;5024324;28;20649;-69
2021/12/19 09:46:00;;;;;;;68.33;33.77;;;2.70;94.00;;;;;;5025267;28;20208;-69
2021/12/19 09:48:27;;;;;;;71.10;37.77;;;2.70;93.80;;;;;;5024969;28;20211;-70
2021/12/19 09:50:55;;;;;;;67.13;37.23;;;2.70;94.00;;;;;;5024231;28;20238;-69
2021/12/19 09:53:22;;;;;;;58.17;33.90;;;2.80;94.20;;;;;;5022041;28;20219;-69
2021/12/19 09:55:49;;;;;;;71.67;39.37;;;2.80;94.10;;;;;;5020089;28;20683;-69
2021/12/19 09:58:16;;;;;;;67.93;37.73;;;2.80;94.10;;;;;;5027799;28;20242;-69
2021/12/19 10:00:44;;;;;;;83.50;41.57;;;2.90;94.20;;;;;;5013735;28;20314;-69
2021/12/19 10:03:11;;;;;;;69.97;35.50;;;2.90;94.20;;;;;;5023476;28;20244;-69
2021/12/19 10:05:38;;;;;;;72.73;39.53;;;2.90;94.10;;;;;;5023428;28;20215;-69
2021/12/19 10:08:06;;;;;;;75.23;37.70;;;2.90;94.10;;;;;;5041219;28;20540;-70
2021/12/19 10:10:42;;;;;;;79.13;39.83;;;3.00;94.20;;;;;;5029057;28;20209;-69
2021/12/19 10:13:09;;;;;;;62.07;35.80;;;3.00;94.20;;;;;;5018444;28;20214;-69
2021/12/19 10:15:41;;;;;;;90.30;44.43;;;3.00;94.10;;;;;;5024659;28;20209;-69
2021/12/19 10:18:16;;;;;;;77.20;42.20;;;3.00;94.20;;;;;;5017340;28;20650;-69
2021/12/19 10:20:58;;;;;;;84.57;41.33;;;3.00;94.50;;;;;;5016350;28;20215;-69
2021/12/19 10:23:35;;;;;;;70.40;41.83;;;3.20;94.80;;;;;;5028503;28;20215;-70
2021/12/19 10:26:06;;;;;;;78.03;41.90;;;3.30;94.80;;;;;;5031985;28;20207;-70
2021/12/19 10:28:57;;;;;;;69.57;42.17;;;3.40;94.60;;;;;;5032455;28;20206;-70
2021/12/19 10:31:28;;;;;;;71.50;42.63;;;3.50;94.60;;;;;;5028897;28;20656;-70
2021/12/19 10:33:56;;;;;;;82.40;43.67;;;3.60;94.50;;;;;;5039139;28;20278;-71
2021/12/19 10:36:24;;;;;;;79.37;44.00;;;3.70;94.40;;;;;;5041420;28;20215;-70
2021/12/19 10:38:56;;;;;;;79.83;45.27;;;3.80;94.50;;;;;;5019577;28;20211;-70
2021/12/19 10:41:32;;;;;;;91.53;48.30;;;4.00;94.60;;;;;;5029540;28;20240;-70
2021/12/19 10:44:11;;;;;;;81.57;44.13;;;4.10;94.70;;;;;;5026547;28;20216;-70
2021/12/19 10:46:42;;;;;;;72.63;42.67;;;4.40;94.70;;;;;;5042702;28;20563;-70
2021/12/19 10:49:32;;;;;;;74.57;42.90;;;4.50;93.90;;;;;;5026391;28;20233;-70
2021/12/19 10:52:05;;;;;;;82.50;43.77;;;4.50;93.40;;;;;;5030508;28;20668;-70
2021/12/19 10:54:33;;;;;;;80.63;43.73;;;4.50;93.40;;;;;;5044410;28;20224;-70
2021/12/19 10:57:12;;;;;;;85.00;47.07;;;4.50;93.20;;;;;;5024730;28;20218;-70
2021/12/19 10:59:44;;;;;;;75.00;43.17;;;4.60;93.50;;;;;;5031207;28;20274;-71
2021/12/19 11:02:11;;;;;;;74.27;42.87;;;4.70;93.60;;;;;;5049313;28;20237;-70
2021/12/19 11:04:38;;;;;;;74.20;44.03;;;4.80;93.60;;;;;;5028432;28;20322;-70
2021/12/19 11:07:05;;;;;;;78.10;44.90;;;4.80;93.70;;;;;;5023951;28;20213;-70
2021/12/19 11:09:37;;;;;;;70.83;43.63;;;5.00;93.90;;;;;;5032444;28;20211;-70
2021/12/19 11:12:08;;;;;;;74.07;42.83;;;5.10;94.10;;;;;;5016610;28;20228;-70
2021/12/19 11:14:56;;;;;;;64.17;40.83;;;5.20;93.90;;;;;;5030994;28;20640;-71
2021/12/19 11:17:26;;;;;;;65.23;41.07;;;5.30;93.70;;;;;;5016494;28;20221;-71
2021/12/19 11:19:56;;;;;;;72.80;44.43;;;5.50;93.60;;;;;;5027705;28;20224;-71
2021/12/19 11:22:26;;;;;;;62.47;41.70;;;5.60;93.60;;;;;;5029730;28;20230;-70
2021/12/19 11:24:59;;;;;;;66.83;42.67;;;5.70;93.50;;;;;;5024542;28;20206;-70
2021/12/19 11:27:28;;;;;;;71.37;43.10;;;5.80;93.10;;;;;;5024512;28;20297;-70
2021/12/19 11:29:58;;;;;;;78.77;44.47;;;5.80;92.70;;;;;;5025641;28;20218;-70
2021/12/19 11:32:36;;;;;;;68.93;44.27;;;5.80;92.60;;;;;;5010598;28;20311;-70
2021/12/19 11:35:14;;;;;;;75.77;44.30;;;5.90;92.70;;;;;;5027359;28;20220;-70
2021/12/19 11:37:54;;;;;;;61.93;41.83;;;5.90;92.70;;;;;;5024844;28;20219;-70
2021/12/19 11:40:22;;;;;;;70.97;44.80;;;6.00;92.60;;;;;;5025141;28;20605;-70
2021/12/19 11:42:59;;;;;;;64.13;42.60;;;6.00;92.50;;;;;;5008345;28;20238;-70
2021/12/19 11:45:34;;;;;;;62.27;42.53;;;6.00;92.50;;;;;;5026046;28;20297;-70
2021/12/19 11:48:23;;;;;;;71.17;44.53;;;6.00;92.30;;;;;;5022154;28;20226;-70
2021/12/19 11:50:53;;;;;;;75.33;43.97;;;6.00;91.70;;;;;;5016630;28;20211;-70
2021/12/19 11:53:22;;;;;;;70.73;41.67;;;6.00;92.00;;;;;;5012620;28;20228;-71
2021/12/19 11:55:55;;;;;;;68.33;42.83;;;5.90;91.40;;;;;;5025912;28;20210;-71
2021/12/19 11:58:28;;;;;;;70.03;40.50;;;5.70;91.60;;;;;;5024862;28;20226;-71
2021/12/19 12:01:30;;;;;;;68.90;41.10;;;5.70;91.80;;;;;;5022626;28;20664;-71
2021/12/19 12:04:18;;;;;;;75.33;43.17;;;5.60;91.60;;;;;;5015456;28;20317;-70
2021/12/19 12:06:56;;;;;;;69.97;41.07;;;5.30;92.30;;;;;;5022646;28;20228;-70
2021/12/19 12:09:30;;;;;;;67.97;40.17;;;5.20;92.60;;;;;;5021014;28;20284;-70
2021/12/19 12:12:00;;;;;;;76.77;45.17;;;5.20;92.80;;;;;;5025604;28;20226;-70
2021/12/19 12:14:32;;;;;;;69.10;43.27;;;5.10;93.00;;;;;;5036079;28;20260;-70
2021/12/19 12:17:21;;;;;;;74.53;45.43;;;5.10;93.30;;;;;;5018139;28;20236;-70
2021/12/19 12:19:55;;;;;;;78.83;46.73;;;5.00;93.40;;;;;;5022250;28;20218;-70
2021/12/19 12:25:07;;;;;;;67.23;40.43;;;5.00;93.60;;;;;;5030387;28;20619;-70
2021/12/19 12:27:40;;;;;;;78.07;46.63;;;5.00;93.60;;;;;;5019661;28;20213;-70
2021/12/19 12:30:22;;;;;;;73.93;42.57;;;5.00;93.70;;;;;;5018671;28;20236;-70
2021/12/19 12:32:49;;;;;;;68.13;42.93;;;5.10;94.10;;;;;;5014621;28;20670;-70
2021/12/19 12:35:17;;;;;;;69.63;44.13;;;5.10;93.80;;;;;;5024250;28;20218;-70
2021/12/19 12:37:47;;;;;;;71.53;45.17;;;5.10;93.80;;;;;;5017870;28;20224;-70
2021/12/19 12:40:29;;;;;;;77.70;47.83;;;5.10;93.90;;;;;;5038619;28;20235;-70
2021/12/19 12:43:05;;;;;;;68.20;43.00;;;5.20;94.10;;;;;;5033513;28;20241;-70
2021/12/19 12:45:56;;;;;;;71.23;45.37;;;5.30;94.10;;;;;;5013941;28;20221;-70
2021/12/19 12:48:30;;;;;;;69.30;42.17;;;5.40;93.90;;;;;;5002996;28;20308;-70
2021/12/19 12:50:59;;;;;;;68.37;41.70;;;5.40;93.60;;;;;;5036521;28;20210;-70
2021/12/19 12:53:45;;;;;;;58.23;38.97;;;5.40;93.50;;;;;;5029513;28;20212;-70
2021/12/19 12:56:19;;;;;;;73.33;45.53;;;5.40;93.60;;;;;;5009307;28;20220;-70
2021/12/19 12:58:54;;;;;;;65.23;43.40;;;5.50;93.70;;;;;;5021754;28;20524;-70
2021/12/19 13:01:27;;;;;;;68.30;42.70;;;5.60;93.80;;;;;;5017826;28;20255;-70
2021/12/19 13:03:58;;;;;;;71.70;43.43;;;5.70;93.70;;;;;;5022993;28;20274;-70
2021/12/19 13:06:41;;;;;;;61.83;41.17;;;5.80;93.50;;;;;;5025219;28;20214;-70
2021/12/19 13:09:10;;;;;;;62.53;41.20;;;5.80;93.10;;;;;;5016352;28;20325;-70
2021/12/19 13:11:37;;;;;;;69.80;44.93;;;5.80;93.20;;;;;;5020522;28;20215;-71
2021/12/19 13:14:29;;;;;;;64.63;42.03;;;5.90;93.30;;;;;;5017472;28;20285;-70
2021/12/19 13:17:07;;;;;;;62.90;41.57;;;5.90;93.20;;;;;;5003386;28;20295;-71
2021/12/19 13:19:47;;;;;;;60.40;40.73;;;6.00;93.20;;;;;;5022113;28;20218;-70
2021/12/19 13:22:36;;;;;;;67.13;44.00;;;6.10;92.90;;;;;;5005743;28;20229;-70
2021/12/19 13:25:15;;;;;;;62.13;42.53;;;6.00;92.90;;;;;;5028217;28;20249;-70
2021/12/19 13:27:51;;;;;;;61.57;41.30;;;6.10;93.00;;;;;;5027173;28;20241;-71
2021/12/19 13:30:21;;;;;;;64.63;42.67;;;6.10;93.00;;;;;;5017600;28;20245;-70
2021/12/19 13:33:29;;;;;;;68.90;44.67;;;6.20;92.90;;;;;;5017999;28;20214;-70
2021/12/19 13:35:57;;;;;;;71.17;45.27;;;6.20;92.70;;;;;;5026197;28;20256;-70
2021/12/19 13:38:25;;;;;;;66.40;43.97;;;6.20;92.90;;;;;;5026694;28;20214;-70
2021/12/19 13:41:03;;;;;;;66.63;44.57;;;6.20;92.80;;;;;;5000960;28;20334;-70
2021/12/19 13:43:33;;;;;;;69.07;44.67;;;6.20;92.70;;;;;;5018847;28;20250;-70
2021/12/19 13:46:01;;;;;;;72.23;45.53;;;6.20;92.50;;;;;;5008914;28;20225;-70
2021/12/19 13:48:32;;;;;;;69.37;45.73;;;6.20;92.60;;;;;;5011792;28;20292;-70
2021/12/19 13:51:01;;;;;;;74.13;46.60;;;6.10;92.70;;;;;;5006614;28;20216;-70
2021/12/19 13:53:36;;;;;;;72.17;45.47;;;6.10;92.90;;;;;;5011802;28;20423;-69
2021/12/19 13:56:13;;;;;;;71.83;46.27;;;6.20;93.00;;;;;;5025452;28;20545;-70